createdAt,value
2022-10-07T00:00:19.019Z,100.00
2022-10-07T00:01:40.971Z,100.00
2022-10-07T00:02:43.783Z,100.00
2022-10-07T00:03:45.735Z,100.00
2022-10-07T00:04:47.931Z,100.00
2022-10-07T00:06:11.134Z,100.00
2022-10-07T00:07:14.844Z,100.00
2022-10-07T00:08:16.527Z,100.00
2022-10-07T00:09:18.281Z,100.00
2022-10-07T00:10:20.031Z,100.00
2022-10-07T00:11:25.490Z,100.00
2022-10-07T00:12:27.630Z,100.00
2022-10-07T00:13:29.321Z,100.00
2022-10-07T00:14:31.055Z,100.00
2022-10-07T00:15:32.767Z,100.00
2022-10-07T00:16:37.793Z,100.00
2022-10-07T00:17:39.606Z,100.00
2022-10-07T00:18:42.147Z,100.00
2022-10-07T00:19:44.140Z,100.00
2022-10-07T00:20:45.947Z,100.00
2022-10-07T00:21:47.807Z,100.00
2022-10-07T00:22:49.572Z,100.00
2022-10-07T00:23:51.410Z,100.00
2022-10-07T00:24:53.111Z,100.00
2022-10-07T00:25:54.857Z,100.00
2022-10-07T00:26:56.691Z,100.00
2022-10-07T00:27:59.086Z,100.00
2022-10-07T00:29:01.811Z,100.00
2022-10-07T00:30:03.840Z,100.00
2022-10-07T00:31:09.316Z,100.00
2022-10-07T00:32:12.978Z,100.00
2022-10-07T00:33:14.685Z,100.00
2022-10-07T00:34:16.441Z,100.00
2022-10-07T00:35:18.993Z,100.00
2022-10-07T00:36:39.172Z,100.00
2022-10-07T00:37:43.331Z,100.00
2022-10-07T00:38:51.357Z,100.00
2022-10-07T00:39:52.963Z,100.00
2022-10-07T00:40:54.860Z,100.00
2022-10-07T00:41:56.690Z,100.00
2022-10-07T00:42:59.264Z,100.00
2022-10-07T00:44:33.278Z,100.00
2022-10-07T00:45:36.506Z,100.00
2022-10-07T00:46:40.856Z,100.00
2022-10-07T00:47:48.372Z,100.00
2022-10-07T00:48:50.751Z,100.00
2022-10-07T00:50:06.115Z,100.00
2022-10-07T00:51:10.088Z,100.00
2022-10-07T00:52:14.782Z,100.00
2022-10-07T00:53:17.213Z,100.00
2022-10-07T00:54:21.003Z,100.00
2022-10-07T00:55:27.440Z,100.00
2022-10-07T00:56:31.017Z,100.00
2022-10-07T00:57:34.937Z,100.00
2022-10-07T00:58:41.502Z,100.00
2022-10-07T00:59:43.137Z,100.00
2022-10-07T01:00:45.418Z,100.00
2022-10-07T01:01:47.254Z,100.00
2022-10-07T01:02:49.365Z,100.00
2022-10-07T01:03:51.576Z,100.00
2022-10-07T01:04:58.759Z,100.00
2022-10-07T01:06:00.410Z,100.00
2022-10-07T01:07:02.432Z,100.00
2022-10-07T01:08:04.310Z,100.00
2022-10-07T01:09:10.658Z,100.00
2022-10-07T01:10:20.049Z,100.00
2022-10-07T01:11:50.895Z,100.00
2022-10-07T01:13:22.736Z,100.00
2022-10-07T01:14:55.025Z,100.00
2022-10-07T01:16:23.342Z,100.00
2022-10-07T01:17:41.280Z,100.00
2022-10-07T01:18:55.469Z,100.00
2022-10-07T01:20:31.224Z,100.00
2022-10-07T01:22:02.152Z,100.00
2022-10-07T01:23:20.901Z,100.00
2022-10-07T01:24:51.538Z,100.00
2022-10-07T01:26:31.159Z,100.00
2022-10-07T01:27:37.936Z,100.00
2022-10-07T01:28:44.711Z,100.00
2022-10-07T01:29:56.322Z,100.00
2022-10-07T01:31:05.249Z,100.00
2022-10-07T01:32:19.404Z,100.00
2022-10-07T01:33:28.987Z,100.00
2022-10-07T01:34:34.684Z,100.00
2022-10-07T01:35:37.881Z,100.00
2022-10-07T01:36:51.019Z,100.00
2022-10-07T01:38:00.541Z,100.00
2022-10-07T01:39:12.761Z,100.00
2022-10-07T01:40:25.365Z,100.00
2022-10-07T01:41:29.117Z,100.00
2022-10-07T01:42:32.421Z,100.00
2022-10-07T01:43:36.412Z,100.00
2022-10-07T01:44:40.225Z,100.00
2022-10-07T01:45:42.242Z,100.00
2022-10-07T01:46:44.083Z,100.00
2022-10-07T01:47:46.907Z,100.00
2022-10-07T01:48:49.269Z,100.00
2022-10-07T01:49:52.016Z,100.00
2022-10-07T01:50:54.590Z,100.00
2022-10-07T01:52:34.809Z,100.00
2022-10-07T01:54:06.265Z,100.00
2022-10-07T01:55:19.755Z,100.00
2022-10-07T01:56:55.162Z,100.00
2022-10-07T01:58:20.979Z,100.00
2022-10-07T01:59:47.515Z,100.00
2022-10-07T02:01:13.201Z,100.00
2022-10-07T02:02:48.250Z,100.00
2022-10-07T02:03:59.874Z,100.00
2022-10-07T02:05:16.036Z,100.00
2022-10-07T02:06:37.725Z,100.00
2022-10-07T02:08:11.677Z,100.00
2022-10-07T02:09:39.299Z,100.00
2022-10-07T02:11:11.541Z,100.00
2022-10-07T02:12:28.190Z,100.00
2022-10-07T02:13:57.842Z,100.00
2022-10-07T02:15:13.574Z,100.00
2022-10-07T02:16:32.585Z,100.00
2022-10-07T02:17:42.456Z,100.00
2022-10-07T02:18:52.384Z,100.00
2022-10-07T02:19:56.601Z,100.00
2022-10-07T02:21:05.094Z,100.00
2022-10-07T02:22:10.627Z,100.00
2022-10-07T02:23:16.908Z,100.00
2022-10-07T02:24:25.172Z,100.00
2022-10-07T02:25:33.306Z,100.00
2022-10-07T02:26:37.242Z,100.00
2022-10-07T02:27:42.926Z,100.00
2022-10-07T02:28:49.786Z,100.00
2022-10-07T02:29:57.438Z,100.00
2022-10-07T02:31:04.280Z,100.00
2022-10-07T02:32:12.210Z,100.00
2022-10-07T02:33:14.648Z,100.00
2022-10-07T02:34:21.558Z,100.00
2022-10-07T02:35:32.914Z,100.00
2022-10-07T02:36:41.010Z,100.00
2022-10-07T02:37:47.849Z,100.00
2022-10-07T02:38:50.119Z,100.00
2022-10-07T02:39:54.852Z,100.00
2022-10-07T02:41:31.420Z,100.00
2022-10-07T02:43:03.228Z,100.00
2022-10-07T02:44:19.358Z,100.00
2022-10-07T02:45:35.386Z,100.00
2022-10-07T02:46:46.711Z,100.00
2022-10-07T02:48:02.620Z,100.00
2022-10-07T02:49:12.774Z,100.00
2022-10-07T02:50:22.491Z,100.00
2022-10-07T02:51:36.252Z,100.00
2022-10-07T02:52:42.453Z,100.00
2022-10-07T02:53:49.556Z,100.00
2022-10-07T02:55:22.705Z,100.00
2022-10-07T02:56:27.502Z,100.00
2022-10-07T02:57:35.132Z,100.00
2022-10-07T02:58:45.726Z,100.00
2022-10-07T02:59:51.786Z,100.00
2022-10-07T03:00:59.670Z,100.00
2022-10-07T03:02:06.849Z,100.00
2022-10-07T03:03:08.814Z,100.00
2022-10-07T03:04:18.654Z,100.00
2022-10-07T03:05:22.503Z,100.00
2022-10-07T03:06:27.108Z,100.00
2022-10-07T03:07:29.176Z,100.00
2022-10-07T03:08:32.303Z,100.00
2022-10-07T03:09:35.215Z,100.00
2022-10-07T03:10:37.872Z,100.00
2022-10-07T03:11:40.975Z,100.00
2022-10-07T03:12:43.453Z,100.00
2022-10-07T03:13:45.922Z,100.00
2022-10-07T03:14:50.038Z,100.00
2022-10-07T03:15:52.153Z,100.00
2022-10-07T03:16:57.468Z,100.00
2022-10-07T03:17:59.267Z,100.00
2022-10-07T03:19:01.625Z,100.00
2022-10-07T03:20:10.230Z,100.00
2022-10-07T03:21:12.417Z,100.00
2022-10-07T03:22:14.090Z,100.00
2022-10-07T03:23:16.079Z,100.00
2022-10-07T03:24:18.527Z,100.00
2022-10-07T03:25:20.898Z,100.00
2022-10-07T03:26:24.181Z,100.00
2022-10-07T03:27:26.208Z,100.00
2022-10-07T03:28:30.091Z,100.00
2022-10-07T03:29:32.992Z,100.00
2022-10-07T03:30:34.851Z,100.00
2022-10-07T03:31:37.668Z,100.00
2022-10-07T03:32:41.462Z,100.00
2022-10-07T03:33:43.842Z,100.00
2022-10-07T03:34:45.570Z,100.00
2022-10-07T03:35:47.256Z,100.00
2022-10-07T03:36:48.909Z,100.00
2022-10-07T03:37:50.767Z,100.00
2022-10-07T03:38:54.970Z,100.00
2022-10-07T03:39:57.082Z,100.00
2022-10-07T03:41:01.810Z,100.00
2022-10-07T03:42:04.559Z,100.00
2022-10-07T03:43:07.621Z,100.00
2022-10-07T03:44:09.639Z,100.00
2022-10-07T03:45:11.310Z,100.00
2022-10-07T03:46:14.100Z,100.00
2022-10-07T03:47:17.561Z,100.00
2022-10-07T03:48:19.546Z,100.00
2022-10-07T03:49:21.866Z,100.00
2022-10-07T03:50:26.123Z,100.00
2022-10-07T03:51:27.814Z,100.00
2022-10-07T03:52:29.722Z,100.00
2022-10-07T03:53:32.069Z,100.00
2022-10-07T03:54:35.273Z,100.00
2022-10-07T03:55:37.644Z,100.00
2022-10-07T03:56:39.367Z,100.00
2022-10-07T03:57:50.004Z,100.00
2022-10-07T03:58:52.764Z,100.00
2022-10-07T03:59:54.976Z,100.00
2022-10-07T04:01:11.422Z,100.00
2022-10-07T04:02:16.838Z,100.00
2022-10-07T04:03:18.890Z,100.00
2022-10-07T04:04:21.801Z,100.00
2022-10-07T04:05:23.577Z,100.00
2022-10-07T04:06:26.267Z,100.00
2022-10-07T04:07:28.122Z,100.00
2022-10-07T04:08:32.922Z,100.00
2022-10-07T04:09:34.831Z,100.00
2022-10-07T04:10:36.745Z,100.00
2022-10-07T04:11:40.602Z,100.00
2022-10-07T04:12:45.243Z,100.00
2022-10-07T04:13:48.372Z,100.00
2022-10-07T04:14:51.208Z,100.00
2022-10-07T04:15:53.468Z,100.00
2022-10-07T04:16:56.731Z,100.00
2022-10-07T04:17:58.689Z,100.00
2022-10-07T04:19:00.700Z,100.00
2022-10-07T04:20:03.129Z,100.00
2022-10-07T04:21:05.492Z,100.00
2022-10-07T04:22:09.035Z,100.00
2022-10-07T04:23:11.630Z,100.00
2022-10-07T04:24:13.677Z,100.00
2022-10-07T04:25:33.863Z,100.00
2022-10-07T04:26:38.182Z,100.00
2022-10-07T04:27:51.569Z,100.00
2022-10-07T04:28:53.958Z,100.00
2022-10-07T04:29:57.029Z,100.00
2022-10-07T04:30:58.846Z,100.00
2022-10-07T04:32:06.001Z,100.00
2022-10-07T04:33:08.450Z,100.00
2022-10-07T04:34:10.216Z,100.00
2022-10-07T04:35:14.361Z,100.00
2022-10-07T04:36:16.427Z,100.00
2022-10-07T04:37:22.159Z,100.00
2022-10-07T04:38:28.138Z,100.00
2022-10-07T04:39:49.271Z,100.00
2022-10-07T04:40:52.505Z,100.00
2022-10-07T04:41:55.132Z,100.00
2022-10-07T04:43:19.505Z,100.00
2022-10-07T04:44:23.728Z,100.00
2022-10-07T04:45:43.405Z,100.00
2022-10-07T04:46:45.151Z,100.00
2022-10-07T04:47:48.660Z,100.00
2022-10-07T04:48:50.588Z,100.00
2022-10-07T04:49:56.010Z,100.00
2022-10-07T04:51:02.740Z,100.00
2022-10-07T04:52:04.424Z,100.00
2022-10-07T04:53:14.345Z,100.00
2022-10-07T04:54:16.154Z,100.00
2022-10-07T04:55:24.117Z,100.00
2022-10-07T04:56:28.354Z,100.00
2022-10-07T04:57:30.191Z,100.00
2022-10-07T04:58:32.870Z,100.00
2022-10-07T04:59:39.266Z,100.00
2022-10-07T05:00:49.594Z,100.00
2022-10-07T05:01:52.161Z,100.00
2022-10-07T05:02:53.879Z,100.00
2022-10-07T05:03:56.224Z,100.00
2022-10-07T05:04:58.003Z,100.00
2022-10-07T05:06:05.961Z,100.00
2022-10-07T05:07:08.642Z,100.00
2022-10-07T05:08:12.500Z,100.00
2022-10-07T05:09:14.365Z,100.00
2022-10-07T05:10:18.874Z,100.00
2022-10-07T05:11:20.588Z,100.00
2022-10-07T05:12:33.321Z,100.00
2022-10-07T05:13:38.716Z,100.00
2022-10-07T05:14:43.083Z,100.00
2022-10-07T05:15:53.882Z,100.00
2022-10-07T05:16:55.646Z,100.00
2022-10-07T05:17:59.982Z,100.00
2022-10-07T05:19:02.070Z,100.00
2022-10-07T05:20:04.856Z,100.00
2022-10-07T05:21:08.792Z,100.00
2022-10-07T05:22:13.453Z,100.00
2022-10-07T05:23:18.387Z,100.00
2022-10-07T05:24:20.660Z,100.00
2022-10-07T05:25:22.412Z,100.00
2022-10-07T05:26:24.084Z,100.00
2022-10-07T05:27:32.469Z,100.00
2022-10-07T05:28:35.373Z,100.00
2022-10-07T05:29:37.068Z,100.00
2022-10-07T05:30:39.205Z,100.00
2022-10-07T05:31:41.339Z,100.00
2022-10-07T05:32:43.210Z,100.00
2022-10-07T05:33:46.243Z,100.00
2022-10-07T05:34:48.093Z,100.00
2022-10-07T05:35:49.756Z,100.00
2022-10-07T05:36:51.461Z,100.00
2022-10-07T05:37:54.251Z,100.00
2022-10-07T05:38:59.899Z,100.00
2022-10-07T05:40:11.358Z,100.00
2022-10-07T05:41:13.369Z,100.00
2022-10-07T05:42:15.781Z,100.00
2022-10-07T05:43:23.251Z,100.00
2022-10-07T05:44:25.162Z,100.00
2022-10-07T05:45:27.139Z,100.00
2022-10-07T05:46:29.314Z,100.00
2022-10-07T05:47:34.925Z,100.00
2022-10-07T05:48:39.461Z,100.00
2022-10-07T05:49:41.943Z,100.00
2022-10-07T05:50:47.382Z,100.00
2022-10-07T05:51:49.401Z,100.00
2022-10-07T05:52:52.043Z,100.00
2022-10-07T05:53:57.504Z,100.00
2022-10-07T05:55:03.847Z,100.00
2022-10-07T05:56:12.213Z,100.00
2022-10-07T05:57:14.137Z,100.00
2022-10-07T05:58:15.937Z,100.00
2022-10-07T05:59:17.786Z,100.00
2022-10-07T06:00:20.939Z,100.00
2022-10-07T06:01:24.820Z,100.00
2022-10-07T06:02:26.722Z,100.00
2022-10-07T06:03:29.168Z,100.00
2022-10-07T06:04:31.723Z,100.00
2022-10-07T06:05:33.516Z,100.00
2022-10-07T06:06:36.470Z,100.00
2022-10-07T06:07:41.338Z,100.00
2022-10-07T06:08:43.149Z,100.00
2022-10-07T06:10:03.589Z,100.00
2022-10-07T06:11:25.301Z,100.00
2022-10-07T06:12:45.456Z,100.00
2022-10-07T06:13:54.157Z,100.00
2022-10-07T06:14:55.913Z,100.00
2022-10-07T06:16:05.361Z,100.00
2022-10-07T06:17:07.396Z,100.00
2022-10-07T06:18:09.296Z,100.00
2022-10-07T06:19:22.382Z,100.00
2022-10-07T06:20:25.137Z,100.00
2022-10-07T06:21:28.162Z,100.00
2022-10-07T06:22:34.089Z,100.00
2022-10-07T06:23:35.863Z,100.00
2022-10-07T06:24:37.612Z,100.00
2022-10-07T06:25:39.924Z,100.00
2022-10-07T06:26:44.844Z,100.00
2022-10-07T06:27:52.774Z,100.00
2022-10-07T06:28:55.485Z,100.00
2022-10-07T06:29:57.452Z,100.00
2022-10-07T06:30:59.588Z,100.00
2022-10-07T06:32:01.407Z,100.00
2022-10-07T06:33:03.719Z,100.00
2022-10-07T06:34:05.554Z,100.00
2022-10-07T06:35:07.907Z,100.00
2022-10-07T06:36:12.472Z,100.00
2022-10-07T06:37:14.570Z,100.00
2022-10-07T06:38:17.114Z,100.00
2022-10-07T06:39:19.080Z,100.00
2022-10-07T06:40:21.832Z,100.00
2022-10-07T06:41:23.920Z,100.00
2022-10-07T06:42:36.799Z,100.00
2022-10-07T06:44:03.301Z,100.00
2022-10-07T06:45:05.706Z,100.00
2022-10-07T06:46:12.840Z,100.00
2022-10-07T06:47:15.964Z,100.00
2022-10-07T06:48:19.500Z,99.95
2022-10-07T06:49:21.220Z,99.32
2022-10-07T06:50:22.951Z,99.03
2022-10-07T06:51:25.094Z,98.56
2022-10-07T06:52:26.900Z,98.55
2022-10-07T06:53:29.724Z,98.37
2022-10-07T06:54:32.372Z,98.45
2022-10-07T06:55:34.152Z,98.29
2022-10-07T06:56:36.062Z,98.39
2022-10-07T06:57:46.216Z,98.38
2022-10-07T06:58:50.005Z,97.81
2022-10-07T06:59:55.733Z,97.47
2022-10-07T07:00:59.835Z,97.39
2022-10-07T07:02:02.255Z,97.12
2022-10-07T07:03:04.319Z,97.39
2022-10-07T07:04:06.516Z,97.56
2022-10-07T07:05:09.085Z,97.19
2022-10-07T07:06:12.047Z,97.27
2022-10-07T07:07:14.004Z,97.10
2022-10-07T07:08:18.246Z,96.71
2022-10-07T07:09:22.663Z,96.51
2022-10-07T07:10:25.618Z,96.34
2022-10-07T07:11:37.062Z,95.69
2022-10-07T07:13:15.572Z,95.87
2022-10-07T07:14:18.705Z,95.93
2022-10-07T07:15:24.573Z,96.03
2022-10-07T07:16:26.745Z,96.07
2022-10-07T07:17:29.135Z,95.91
2022-10-07T07:18:31.342Z,96.12
2022-10-07T07:19:33.143Z,96.33
2022-10-07T07:20:39.931Z,96.67
2022-10-07T07:21:42.139Z,96.70
2022-10-07T07:22:45.976Z,96.32
2022-10-07T07:23:48.509Z,96.30
2022-10-07T07:24:50.222Z,95.35
2022-10-07T07:25:51.923Z,94.44
2022-10-07T07:26:53.610Z,93.90
2022-10-07T07:27:58.682Z,93.80
2022-10-07T07:29:03.360Z,93.49
2022-10-07T07:30:11.172Z,93.47
2022-10-07T07:31:13.638Z,92.68
2022-10-07T07:32:15.395Z,91.62
2022-10-07T07:33:17.934Z,91.33
2022-10-07T07:34:20.727Z,91.52
2022-10-07T07:35:24.303Z,90.40
2022-10-07T07:36:26.355Z,90.02
2022-10-07T07:37:30.167Z,89.12
2022-10-07T07:38:32.031Z,89.60
2022-10-07T07:39:33.682Z,89.70
2022-10-07T07:40:53.530Z,88.01
2022-10-07T07:41:55.746Z,87.86
2022-10-07T07:42:58.102Z,87.58
2022-10-07T07:44:02.669Z,87.17
2022-10-07T07:45:05.101Z,88.27
2022-10-07T07:46:07.662Z,88.07
2022-10-07T07:47:09.422Z,86.23
2022-10-07T07:48:13.874Z,86.12
2022-10-07T07:49:17.146Z,86.63
2022-10-07T07:50:22.563Z,86.04
2022-10-07T07:51:24.484Z,84.51
2022-10-07T07:52:26.318Z,84.83
2022-10-07T07:53:28.569Z,84.45
2022-10-07T07:54:30.532Z,83.02
2022-10-07T07:55:32.472Z,83.13
2022-10-07T07:56:34.119Z,82.81
2022-10-07T07:57:36.597Z,82.07
2022-10-07T07:58:40.235Z,82.48
2022-10-07T07:59:42.062Z,81.88
2022-10-07T08:00:44.029Z,81.33
2022-10-07T08:01:45.829Z,80.90
2022-10-07T08:02:48.982Z,81.30
2022-10-07T08:03:52.718Z,80.30
2022-10-07T08:04:54.353Z,79.78
2022-10-07T08:05:56.468Z,79.44
2022-10-07T08:06:58.161Z,79.42
2022-10-07T08:07:59.902Z,79.04
2022-10-07T08:09:01.869Z,78.28
2022-10-07T08:10:04.698Z,78.07
2022-10-07T08:11:20.845Z,76.97
2022-10-07T08:12:23.415Z,76.65
2022-10-07T08:13:25.800Z,76.00
2022-10-07T08:14:27.498Z,75.48
2022-10-07T08:15:29.642Z,74.97
2022-10-07T08:16:31.495Z,75.47
2022-10-07T08:17:34.650Z,75.29
2022-10-07T08:18:36.887Z,75.23
2022-10-07T08:19:38.617Z,74.94
2022-10-07T08:20:40.504Z,74.42
2022-10-07T08:21:42.947Z,73.83
2022-10-07T08:22:49.727Z,73.98
2022-10-07T08:23:53.686Z,74.17
2022-10-07T08:24:59.889Z,74.49
2022-10-07T08:26:03.422Z,74.23
2022-10-07T08:27:06.210Z,73.86
2022-10-07T08:28:09.547Z,73.52
2022-10-07T08:29:11.882Z,72.83
2022-10-07T08:30:13.794Z,72.72
2022-10-07T08:31:18.730Z,72.60
2022-10-07T08:32:20.474Z,72.30
2022-10-07T08:33:22.722Z,72.42
2022-10-07T08:34:24.439Z,72.78
2022-10-07T08:35:26.091Z,72.98
2022-10-07T08:36:30.022Z,73.32
2022-10-07T08:37:31.667Z,72.57
2022-10-07T08:38:36.910Z,72.21
2022-10-07T08:39:38.636Z,72.45
2022-10-07T08:40:53.551Z,72.53
2022-10-07T08:42:20.869Z,73.50
2022-10-07T08:43:24.838Z,73.82
2022-10-07T08:44:33.597Z,73.50
2022-10-07T08:45:35.632Z,73.61
2022-10-07T08:46:39.218Z,72.96
2022-10-07T08:47:47.452Z,73.12
2022-10-07T08:48:59.892Z,73.64
2022-10-07T08:50:20.004Z,72.85
2022-10-07T08:51:31.460Z,72.19
2022-10-07T08:52:33.011Z,72.28
2022-10-07T08:53:38.064Z,73.14
2022-10-07T08:54:39.730Z,70.79
2022-10-07T08:56:08.416Z,69.48
2022-10-07T08:57:29.278Z,70.14
2022-10-07T08:58:54.199Z,69.35
2022-10-07T09:00:03.814Z,69.23
2022-10-07T09:01:23.032Z,70.00
2022-10-07T09:02:44.251Z,69.22
2022-10-07T09:03:55.438Z,69.46
2022-10-07T09:05:16.851Z,69.49
2022-10-07T09:06:28.755Z,68.50
2022-10-07T09:07:45.666Z,68.89
2022-10-07T09:08:57.745Z,69.88
2022-10-07T09:10:26.277Z,69.67
2022-10-07T09:11:32.321Z,69.56
2022-10-07T09:12:44.905Z,69.03
2022-10-07T09:13:54.378Z,68.12
2022-10-07T09:15:02.905Z,67.44
2022-10-07T09:16:23.170Z,65.70
2022-10-07T09:17:43.874Z,66.20
2022-10-07T09:18:54.030Z,67.20
2022-10-07T09:20:05.595Z,68.00
2022-10-07T09:21:18.899Z,66.32
2022-10-07T09:22:34.244Z,65.59
2022-10-07T09:23:36.833Z,65.25
2022-10-07T09:24:38.886Z,62.98
2022-10-07T09:25:41.544Z,62.74
2022-10-07T09:26:43.704Z,63.10
2022-10-07T09:27:45.628Z,62.96
2022-10-07T09:28:47.910Z,63.15
2022-10-07T09:29:51.316Z,64.49
2022-10-07T09:30:53.203Z,63.94
2022-10-07T09:31:56.196Z,63.98
2022-10-07T09:32:58.335Z,63.65
2022-10-07T09:34:00.059Z,62.86
2022-10-07T09:35:05.958Z,63.39
2022-10-07T09:36:11.330Z,63.50
2022-10-07T09:37:12.980Z,63.56
2022-10-07T09:38:15.369Z,64.16
2022-10-07T09:39:23.917Z,62.83
2022-10-07T09:41:03.498Z,62.54
2022-10-07T09:42:14.886Z,62.98
2022-10-07T09:43:19.435Z,62.35
2022-10-07T09:44:27.526Z,62.65
2022-10-07T09:45:32.335Z,63.10
2022-10-07T09:46:51.150Z,62.77
2022-10-07T09:47:56.787Z,62.30
2022-10-07T09:49:04.396Z,62.30
2022-10-07T09:50:26.446Z,62.21
2022-10-07T09:51:29.337Z,63.74
2022-10-07T09:52:32.816Z,63.47
2022-10-07T09:53:34.511Z,63.06
2022-10-07T09:54:36.978Z,62.40
2022-10-07T09:55:41.642Z,60.50
2022-10-07T09:56:46.534Z,61.63
2022-10-07T09:58:04.697Z,61.50
2022-10-07T09:59:27.693Z,60.36
2022-10-07T10:00:30.579Z,59.95
2022-10-07T10:01:32.790Z,60.21
2022-10-07T10:02:35.144Z,60.54
2022-10-07T10:03:38.483Z,59.54
2022-10-07T10:04:54.520Z,60.06
2022-10-07T10:06:01.302Z,61.01
2022-10-07T10:07:19.108Z,59.84
2022-10-07T10:08:28.381Z,60.58
2022-10-07T10:09:30.666Z,59.71
2022-10-07T10:10:37.008Z,60.40
2022-10-07T10:11:38.915Z,60.19
2022-10-07T10:12:51.161Z,60.21
2022-10-07T10:13:52.922Z,58.69
2022-10-07T10:15:01.605Z,58.22
2022-10-07T10:16:06.178Z,57.10
2022-10-07T10:17:25.478Z,56.48
2022-10-07T10:18:41.438Z,57.14
2022-10-07T10:19:43.308Z,56.33
2022-10-07T10:20:46.561Z,56.38
2022-10-07T10:21:55.057Z,56.45
2022-10-07T10:22:58.422Z,57.13
2022-10-07T10:24:06.012Z,57.83
2022-10-07T10:25:29.572Z,57.97
2022-10-07T10:27:01.510Z,57.51
2022-10-07T10:28:13.497Z,56.46
2022-10-07T10:29:35.886Z,55.74
2022-10-07T10:31:04.649Z,55.61
2022-10-07T10:32:21.362Z,55.32
2022-10-07T10:33:47.391Z,55.34
2022-10-07T10:35:40.165Z,54.92
2022-10-07T10:36:52.050Z,54.52
2022-10-07T10:38:10.937Z,54.25
2022-10-07T10:39:34.667Z,53.54
2022-10-07T10:41:11.861Z,53.06
2022-10-07T10:42:22.742Z,51.61
2022-10-07T10:43:24.291Z,51.53
2022-10-07T10:44:55.984Z,51.93
2022-10-07T10:46:23.431Z,50.92
2022-10-07T10:48:00.860Z,50.81
2022-10-07T10:49:14.226Z,51.65
2022-10-07T10:50:57.871Z,51.39
2022-10-07T10:52:29.916Z,51.14
2022-10-07T10:53:49.743Z,51.37
2022-10-07T10:55:17.790Z,51.25
2022-10-07T10:56:41.395Z,51.07
2022-10-07T10:58:06.694Z,50.33
2022-10-07T10:59:29.867Z,49.62
2022-10-07T11:00:59.455Z,49.45
2022-10-07T11:02:44.678Z,50.15
2022-10-07T11:04:14.343Z,48.21
2022-10-07T11:05:19.586Z,46.85
2022-10-07T11:06:23.430Z,47.07
2022-10-07T11:07:34.119Z,46.37
2022-10-07T11:08:38.642Z,46.97
2022-10-07T11:09:51.053Z,46.94
2022-10-07T11:11:12.076Z,47.44
2022-10-07T11:12:41.641Z,48.26
2022-10-07T11:14:05.767Z,46.67
2022-10-07T11:15:20.764Z,47.43
2022-10-07T11:16:45.317Z,46.45
2022-10-07T11:17:51.940Z,45.75
2022-10-07T11:19:06.992Z,45.51
2022-10-07T11:20:25.280Z,45.39
2022-10-07T11:21:32.340Z,45.31
2022-10-07T11:22:47.979Z,46.04
2022-10-07T11:24:02.124Z,46.87
2022-10-07T11:25:30.314Z,46.12
2022-10-07T11:26:42.155Z,46.62
2022-10-07T11:27:49.702Z,46.48
2022-10-07T11:28:53.325Z,46.39
2022-10-07T11:30:06.505Z,46.41
2022-10-07T11:31:19.973Z,45.66
2022-10-07T11:32:35.815Z,44.94
2022-10-07T11:33:46.482Z,45.89
2022-10-07T11:35:27.126Z,45.13
2022-10-07T11:36:43.798Z,45.60
2022-10-07T11:37:54.149Z,44.87
2022-10-07T11:38:55.840Z,44.21
2022-10-07T11:39:57.648Z,44.23
2022-10-07T11:41:29.835Z,44.54
2022-10-07T11:42:40.435Z,44.32
2022-10-07T11:43:57.099Z,44.08
2022-10-07T11:45:05.372Z,43.57
2022-10-07T11:46:36.234Z,44.42
2022-10-07T11:47:49.581Z,43.03
2022-10-07T11:49:22.295Z,42.67
2022-10-07T11:50:29.877Z,42.74
2022-10-07T11:51:40.935Z,42.97
2022-10-07T11:52:47.717Z,42.81
2022-10-07T11:53:56.028Z,42.86
2022-10-07T11:55:06.354Z,42.60
2022-10-07T11:56:23.198Z,42.19
2022-10-07T11:57:31.658Z,42.42
2022-10-07T11:58:37.303Z,42.94
2022-10-07T11:59:58.066Z,42.28
2022-10-07T12:01:32.060Z,41.95
2022-10-07T12:02:44.017Z,41.16
2022-10-07T12:03:47.533Z,42.06
2022-10-07T12:04:49.281Z,41.45
2022-10-07T12:05:50.854Z,41.89
2022-10-07T12:07:29.794Z,42.94
2022-10-07T12:08:37.395Z,41.89
2022-10-07T12:10:23.227Z,41.44
2022-10-07T12:11:37.131Z,40.44
2022-10-07T12:12:45.219Z,40.59
2022-10-07T12:13:51.465Z,39.88
2022-10-07T12:15:02.469Z,40.53
2022-10-07T12:16:25.685Z,40.61
2022-10-07T12:17:29.686Z,39.29
2022-10-07T12:18:31.384Z,39.01
2022-10-07T12:19:37.307Z,39.08
2022-10-07T12:20:50.770Z,39.78
2022-10-07T12:22:04.690Z,40.47
2022-10-07T12:23:25.862Z,39.15
2022-10-07T12:24:45.947Z,38.74
2022-10-07T12:25:51.392Z,38.79
2022-10-07T12:26:56.580Z,38.48
2022-10-07T12:27:58.416Z,38.48
2022-10-07T12:29:00.426Z,38.81
2022-10-07T12:30:02.653Z,38.56
2022-10-07T12:31:07.055Z,38.76
2022-10-07T12:32:45.220Z,38.64
2022-10-07T12:33:46.963Z,38.41
2022-10-07T12:34:48.590Z,38.30
2022-10-07T12:35:54.287Z,37.18
2022-10-07T12:37:35.000Z,36.24
2022-10-07T12:38:36.908Z,34.89
2022-10-07T12:39:38.990Z,34.84
2022-10-07T12:40:44.461Z,35.05
2022-10-07T12:41:46.802Z,35.67
2022-10-07T12:43:04.385Z,36.50
2022-10-07T12:44:23.553Z,35.39
2022-10-07T12:45:29.386Z,35.14
2022-10-07T12:46:36.906Z,35.91
2022-10-07T12:47:40.163Z,35.13
2022-10-07T12:48:58.413Z,35.08
2022-10-07T12:50:11.241Z,34.84
2022-10-07T12:51:23.072Z,34.88
2022-10-07T12:52:54.369Z,34.73
2022-10-07T12:54:00.255Z,34.55
2022-10-07T12:55:14.618Z,35.33
2022-10-07T12:56:26.614Z,35.46
2022-10-07T12:57:34.984Z,35.33
2022-10-07T12:59:07.194Z,34.84
2022-10-07T13:00:25.571Z,34.68
2022-10-07T13:02:08.143Z,35.56
2022-10-07T13:03:15.741Z,35.70
2022-10-07T13:04:31.900Z,35.80
2022-10-07T13:05:48.467Z,35.02
2022-10-07T13:07:22.589Z,33.91
2022-10-07T13:08:29.731Z,33.79
2022-10-07T13:09:49.969Z,33.68
2022-10-07T13:11:43.159Z,33.90
2022-10-07T13:13:07.509Z,33.70
2022-10-07T13:14:21.876Z,33.84
2022-10-07T13:15:41.497Z,33.55
2022-10-07T13:17:20.316Z,33.90
2022-10-07T13:18:37.279Z,33.43
2022-10-07T13:19:51.899Z,33.78
2022-10-07T13:21:07.868Z,34.08
2022-10-07T13:22:20.004Z,34.16
2022-10-07T13:23:27.242Z,34.25
2022-10-07T13:24:29.854Z,34.42
2022-10-07T13:25:31.706Z,33.98
2022-10-07T13:26:33.474Z,33.94
2022-10-07T13:27:38.737Z,33.44
2022-10-07T13:28:58.387Z,33.76
2022-10-07T13:30:04.787Z,33.21
2022-10-07T13:31:17.751Z,33.49
2022-10-07T13:32:29.689Z,33.48
2022-10-07T13:33:32.422Z,33.38
2022-10-07T13:34:34.385Z,32.97
2022-10-07T13:35:39.637Z,32.76
2022-10-07T13:36:43.678Z,32.75
2022-10-07T13:37:48.402Z,32.86
2022-10-07T13:39:15.352Z,32.89
2022-10-07T13:40:33.959Z,33.02
2022-10-07T13:41:38.988Z,32.72
2022-10-07T13:42:40.733Z,33.45
2022-10-07T13:43:44.532Z,33.30
2022-10-07T13:44:46.258Z,33.00
2022-10-07T13:45:48.095Z,33.60
2022-10-07T13:47:00.224Z,32.63
2022-10-07T13:48:02.362Z,32.87
2022-10-07T13:49:05.385Z,32.74
2022-10-07T13:50:15.999Z,33.65
2022-10-07T13:51:32.803Z,33.15
2022-10-07T13:52:39.646Z,33.15
2022-10-07T13:53:41.594Z,33.09
2022-10-07T13:54:51.425Z,33.21
2022-10-07T13:56:24.087Z,33.71
2022-10-07T13:57:29.765Z,34.19
2022-10-07T13:58:33.175Z,33.69
2022-10-07T13:59:36.899Z,33.63
2022-10-07T14:00:47.159Z,33.06
2022-10-07T14:01:52.703Z,34.26
2022-10-07T14:02:54.671Z,34.20
2022-10-07T14:04:14.621Z,34.14
2022-10-07T14:05:21.400Z,33.91
2022-10-07T14:06:39.446Z,33.77
2022-10-07T14:07:41.966Z,34.31
2022-10-07T14:08:51.309Z,34.65
2022-10-07T14:10:04.905Z,34.42
2022-10-07T14:11:19.793Z,35.01
2022-10-07T14:12:35.207Z,35.65
2022-10-07T14:13:37.965Z,35.42
2022-10-07T14:14:43.215Z,35.39
2022-10-07T14:15:54.266Z,35.41
2022-10-07T14:17:01.457Z,35.73
2022-10-07T14:18:10.506Z,36.02
2022-10-07T14:19:20.983Z,36.15
2022-10-07T14:20:35.137Z,35.65
2022-10-07T14:21:41.270Z,35.55
2022-10-07T14:22:49.957Z,35.40
2022-10-07T14:23:51.742Z,35.66
2022-10-07T14:25:01.479Z,35.99
2022-10-07T14:26:06.570Z,36.52
2022-10-07T14:27:46.989Z,36.95
2022-10-07T14:28:48.684Z,37.99
2022-10-07T14:29:50.450Z,38.75
2022-10-07T14:31:26.175Z,39.44